sensor_id;sensor_type;location;lat;lon;timestamp;P1;durP1;ratioP1;P2;durP2;ratioP2
52798;SDS011;38667;42.872;74.622;2022-07-17T00:00:08;4.93;;;2.28;;
52798;SDS011;38667;42.872;74.622;2022-07-17T00:02:37;7.18;;;2.53;;
52798;SDS011;38667;42.872;74.622;2022-07-17T00:05:04;4.50;;;2.50;;
52798;SDS011;38667;42.872;74.622;2022-07-17T00:07:31;7.57;;;2.47;;
52798;SDS011;38667;42.872;74.622;2022-07-17T00:09:57;4.72;;;2.20;;
52798;SDS011;38667;42.872;74.622;2022-07-17T00:12:23;5.95;;;2.22;;
52798;SDS011;38667;42.872;74.622;2022-07-17T00:14:50;6.38;;;1.90;;
52798;SDS011;38667;42.872;74.622;2022-07-17T00:17:16;7.07;;;2.08;;
52798;SDS011;38667;42.872;74.622;2022-07-17T00:19:44;13.20;;;2.35;;
52798;SDS011;38667;42.872;74.622;2022-07-17T00:22:10;6.88;;;1.80;;
52798;SDS011;38667;42.872;74.622;2022-07-17T00:24:36;3.65;;;1.90;;
52798;SDS011;38667;42.872;74.622;2022-07-17T00:27:03;11.43;;;2.60;;
52798;SDS011;38667;42.872;74.622;2022-07-17T00:29:29;10.02;;;2.03;;
52798;SDS011;38667;42.872;74.622;2022-07-17T00:31:55;5.68;;;2.28;;
52798;SDS011;38667;42.872;74.622;2022-07-17T00:34:22;9.60;;;3.47;;
52798;SDS011;38667;42.872;74.622;2022-07-17T00:36:49;4.93;;;2.05;;
52798;SDS011;38667;42.872;74.622;2022-07-17T00:39:16;5.78;;;2.13;;
52798;SDS011;38667;42.872;74.622;2022-07-17T00:41:43;7.93;;;2.33;;
52798;SDS011;38667;42.872;74.622;2022-07-17T00:44:09;4.78;;;2.40;;
52798;SDS011;38667;42.872;74.622;2022-07-17T00:46:36;9.00;;;1.92;;
52798;SDS011;38667;42.872;74.622;2022-07-17T00:49:03;9.10;;;2.92;;
52798;SDS011;38667;42.872;74.622;2022-07-17T00:51:29;6.63;;;2.30;;
52798;SDS011;38667;42.872;74.622;2022-07-17T00:53:58;5.38;;;1.80;;
52798;SDS011;38667;42.872;74.622;2022-07-17T00:56:25;5.93;;;2.58;;
52798;SDS011;38667;42.872;74.622;2022-07-17T00:58:53;8.05;;;2.47;;
52798;SDS011;38667;42.872;74.622;2022-07-17T01:01:20;9.65;;;2.58;;
52798;SDS011;38667;42.872;74.622;2022-07-17T01:03:46;3.85;;;2.10;;
52798;SDS011;38667;42.872;74.622;2022-07-17T01:06:13;7.20;;;1.88;;
52798;SDS011;38667;42.872;74.622;2022-07-17T01:08:39;6.32;;;2.00;;
52798;SDS011;38667;42.872;74.622;2022-07-17T01:11:08;5.90;;;1.98;;
52798;SDS011;38667;42.872;74.622;2022-07-17T01:13:34;6.22;;;2.67;;
52798;SDS011;38667;42.872;74.622;2022-07-17T01:16:00;8.00;;;2.25;;
52798;SDS011;38667;42.872;74.622;2022-07-17T01:18:27;3.85;;;2.10;;
52798;SDS011;38667;42.872;74.622;2022-07-17T01:20:53;6.43;;;2.35;;
52798;SDS011;38667;42.872;74.622;2022-07-17T01:23:21;9.60;;;2.70;;
52798;SDS011;38667;42.872;74.622;2022-07-17T01:25:47;5.55;;;2.50;;
52798;SDS011;38667;42.872;74.622;2022-07-17T01:28:13;5.38;;;2.63;;
52798;SDS011;38667;42.872;74.622;2022-07-17T01:30:45;5.75;;;2.25;;
52798;SDS011;38667;42.872;74.622;2022-07-17T01:33:12;10.45;;;2.75;;
52798;SDS011;38667;42.872;74.622;2022-07-17T01:35:39;9.90;;;3.88;;
52798;SDS011;38667;42.872;74.622;2022-07-17T01:38:05;7.72;;;2.72;;
52798;SDS011;38667;42.872;74.622;2022-07-17T01:40:33;7.15;;;2.53;;
52798;SDS011;38667;42.872;74.622;2022-07-17T01:42:59;7.32;;;2.88;;
52798;SDS011;38667;42.872;74.622;2022-07-17T01:45:25;14.20;;;6.13;;
52798;SDS011;38667;42.872;74.622;2022-07-17T01:47:52;12.18;;;5.82;;
52798;SDS011;38667;42.872;74.622;2022-07-17T01:50:18;10.07;;;5.68;;
52798;SDS011;38667;42.872;74.622;2022-07-17T01:52:45;8.55;;;5.22;;
52798;SDS011;38667;42.872;74.622;2022-07-17T01:55:12;21.73;;;7.63;;
52798;SDS011;38667;42.872;74.622;2022-07-17T01:57:41;11.05;;;6.40;;
52798;SDS011;38667;42.872;74.622;2022-07-17T02:00:09;13.25;;;7.53;;
52798;SDS011;38667;42.872;74.622;2022-07-17T02:02:37;10.95;;;6.57;;
52798;SDS011;38667;42.872;74.622;2022-07-17T02:05:03;10.88;;;6.43;;
52798;SDS011;38667;42.872;74.622;2022-07-17T02:07:30;11.80;;;6.20;;
52798;SDS011;38667;42.872;74.622;2022-07-17T02:09:56;11.40;;;6.45;;
52798;SDS011;38667;42.872;74.622;2022-07-17T02:12:23;14.25;;;5.45;;
52798;SDS011;38667;42.872;74.622;2022-07-17T02:14:51;8.98;;;5.03;;
52798;SDS011;38667;42.872;74.622;2022-07-17T02:17:17;10.45;;;5.63;;
52798;SDS011;38667;42.872;74.622;2022-07-17T02:19:43;10.80;;;5.20;;
52798;SDS011;38667;42.872;74.622;2022-07-17T02:22:09;10.93;;;5.07;;
52798;SDS011;38667;42.872;74.622;2022-07-17T02:24:36;8.13;;;4.80;;
52798;SDS011;38667;42.872;74.622;2022-07-17T02:27:02;11.05;;;5.32;;
52798;SDS011;38667;42.872;74.622;2022-07-17T02:29:28;15.40;;;5.18;;
52798;SDS011;38667;42.872;74.622;2022-07-17T02:31:56;11.40;;;5.40;;
52798;SDS011;38667;42.872;74.622;2022-07-17T02:34:23;10.57;;;5.07;;
52798;SDS011;38667;42.872;74.622;2022-07-17T02:36:49;9.77;;;4.63;;
52798;SDS011;38667;42.872;74.622;2022-07-17T02:39:15;8.32;;;3.70;;
52798;SDS011;38667;42.872;74.622;2022-07-17T02:41:41;12.00;;;4.68;;
52798;SDS011;38667;42.872;74.622;2022-07-17T02:44:08;10.55;;;4.32;;
52798;SDS011;38667;42.872;74.622;2022-07-17T02:46:34;10.48;;;3.80;;
52798;SDS011;38667;42.872;74.622;2022-07-17T02:49:02;7.50;;;3.60;;
52798;SDS011;38667;42.872;74.622;2022-07-17T02:51:28;9.10;;;3.60;;
52798;SDS011;38667;42.872;74.622;2022-07-17T02:53:54;6.57;;;3.50;;
52798;SDS011;38667;42.872;74.622;2022-07-17T02:56:21;11.27;;;3.22;;
52798;SDS011;38667;42.872;74.622;2022-07-17T02:58:47;6.55;;;3.17;;
52798;SDS011;38667;42.872;74.622;2022-07-17T03:01:13;4.95;;;2.00;;
52798;SDS011;38667;42.872;74.622;2022-07-17T03:03:40;4.82;;;2.35;;
52798;SDS011;38667;42.872;74.622;2022-07-17T03:06:07;4.45;;;2.60;;
52798;SDS011;38667;42.872;74.622;2022-07-17T03:08:34;7.30;;;3.03;;
52798;SDS011;38667;42.872;74.622;2022-07-17T03:11:00;8.68;;;3.60;;
52798;SDS011;38667;42.872;74.622;2022-07-17T03:13:27;5.03;;;3.03;;
52798;SDS011;38667;42.872;74.622;2022-07-17T03:15:53;9.05;;;3.28;;
52798;SDS011;38667;42.872;74.622;2022-07-17T03:18:19;8.27;;;3.50;;
52798;SDS011;38667;42.872;74.622;2022-07-17T03:20:46;9.07;;;4.65;;
52798;SDS011;38667;42.872;74.622;2022-07-17T03:23:14;10.27;;;5.40;;
52798;SDS011;38667;42.872;74.622;2022-07-17T03:25:40;10.63;;;6.15;;
52798;SDS011;38667;42.872;74.622;2022-07-17T03:28:06;13.88;;;5.20;;
52798;SDS011;38667;42.872;74.622;2022-07-17T03:30:32;9.07;;;4.60;;
52798;SDS011;38667;42.872;74.622;2022-07-17T03:32:59;8.38;;;4.10;;
52798;SDS011;38667;42.872;74.622;2022-07-17T03:35:25;9.38;;;3.90;;
52798;SDS011;38667;42.872;74.622;2022-07-17T03:37:51;9.45;;;3.05;;
52798;SDS011;38667;42.872;74.622;2022-07-17T03:40:19;11.25;;;3.85;;
52798;SDS011;38667;42.872;74.622;2022-07-17T03:42:46;16.45;;;7.20;;
52798;SDS011;38667;42.872;74.622;2022-07-17T03:45:12;13.23;;;8.90;;
52798;SDS011;38667;42.872;74.622;2022-07-17T03:47:38;13.30;;;10.25;;
52798;SDS011;38667;42.872;74.622;2022-07-17T03:50:05;15.45;;;10.57;;
52798;SDS011;38667;42.872;74.622;2022-07-17T03:52:31;16.30;;;8.88;;
52798;SDS011;38667;42.872;74.622;2022-07-17T03:54:58;15.20;;;8.90;;
52798;SDS011;38667;42.872;74.622;2022-07-17T03:57:25;17.05;;;8.77;;
52798;SDS011;38667;42.872;74.622;2022-07-17T03:59:52;13.73;;;7.93;;
52798;SDS011;38667;42.872;74.622;2022-07-17T04:02:18;9.65;;;7.68;;
52798;SDS011;38667;42.872;74.622;2022-07-17T04:04:44;8.27;;;6.63;;
52798;SDS011;38667;42.872;74.622;2022-07-17T04:07:11;10.75;;;5.78;;
52798;SDS011;38667;42.872;74.622;2022-07-17T04:09:37;12.68;;;6.30;;
52798;SDS011;38667;42.872;74.622;2022-07-17T04:12:03;8.07;;;5.55;;
52798;SDS011;38667;42.872;74.622;2022-07-17T04:14:31;10.05;;;6.35;;
52798;SDS011;38667;42.872;74.622;2022-07-17T04:16:57;8.93;;;6.90;;
52798;SDS011;38667;42.872;74.622;2022-07-17T04:19:24;10.07;;;6.97;;
52798;SDS011;38667;42.872;74.622;2022-07-17T04:21:50;9.43;;;6.38;;
52798;SDS011;38667;42.872;74.622;2022-07-17T04:24:16;11.48;;;5.93;;
52798;SDS011;38667;42.872;74.622;2022-07-17T04:26:42;8.10;;;5.20;;
52798;SDS011;38667;42.872;74.622;2022-07-17T04:29:09;9.23;;;5.18;;
52798;SDS011;38667;42.872;74.622;2022-07-17T04:31:37;10.73;;;5.07;;
52798;SDS011;38667;42.872;74.622;2022-07-17T04:34:03;6.90;;;4.43;;
52798;SDS011;38667;42.872;74.622;2022-07-17T04:36:29;11.77;;;5.18;;
52798;SDS011;38667;42.872;74.622;2022-07-17T04:38:55;6.05;;;4.32;;
52798;SDS011;38667;42.872;74.622;2022-07-17T04:41:22;8.02;;;4.43;;
52798;SDS011;38667;42.872;74.622;2022-07-17T04:43:48;10.63;;;4.28;;
52798;SDS011;38667;42.872;74.622;2022-07-17T04:46:14;6.63;;;4.18;;
52798;SDS011;38667;42.872;74.622;2022-07-17T04:48:42;6.95;;;4.13;;
52798;SDS011;38667;42.872;74.622;2022-07-17T04:51:08;6.82;;;3.83;;
52798;SDS011;38667;42.872;74.622;2022-07-17T04:53:35;6.40;;;3.33;;
52798;SDS011;38667;42.872;74.622;2022-07-17T04:56:01;4.38;;;3.20;;
52798;SDS011;38667;42.872;74.622;2022-07-17T04:58:28;8.35;;;3.25;;
52798;SDS011;38667;42.872;74.622;2022-07-17T05:00:54;8.88;;;3.50;;
52798;SDS011;38667;42.872;74.622;2022-07-17T05:03:20;11.68;;;3.22;;
52798;SDS011;38667;42.872;74.622;2022-07-17T05:05:48;7.22;;;2.83;;
52798;SDS011;38667;42.872;74.622;2022-07-17T05:08:14;9.98;;;3.10;;
52798;SDS011;38667;42.872;74.622;2022-07-17T05:10:41;6.57;;;2.75;;
52798;SDS011;38667;42.872;74.622;2022-07-17T05:13:07;6.05;;;2.90;;
52798;SDS011;38667;42.872;74.622;2022-07-17T05:15:33;7.00;;;2.95;;
52798;SDS011;38667;42.872;74.622;2022-07-17T05:18:00;7.85;;;2.97;;
52798;SDS011;38667;42.872;74.622;2022-07-17T05:20:26;8.88;;;2.88;;
52798;SDS011;38667;42.872;74.622;2022-07-17T05:22:54;6.50;;;2.55;;
52798;SDS011;38667;42.872;74.622;2022-07-17T05:25:20;7.55;;;3.10;;
52798;SDS011;38667;42.872;74.622;2022-07-17T05:27:46;7.72;;;3.00;;
52798;SDS011;38667;42.872;74.622;2022-07-17T05:30:12;6.28;;;3.20;;
52798;SDS011;38667;42.872;74.622;2022-07-17T05:32:39;9.65;;;3.10;;
52798;SDS011;38667;42.872;74.622;2022-07-17T05:35:05;8.40;;;2.75;;
52798;SDS011;38667;42.872;74.622;2022-07-17T05:37:32;8.48;;;2.72;;
52798;SDS011;38667;42.872;74.622;2022-07-17T05:40:00;6.45;;;3.03;;
52798;SDS011;38667;42.872;74.622;2022-07-17T05:42:26;11.23;;;3.22;;
52798;SDS011;38667;42.872;74.622;2022-07-17T05:44:52;7.93;;;3.08;;
52798;SDS011;38667;42.872;74.622;2022-07-17T05:47:19;7.43;;;3.20;;
52798;SDS011;38667;42.872;74.622;2022-07-17T05:49:45;6.95;;;2.90;;
52798;SDS011;38667;42.872;74.622;2022-07-17T05:52:11;6.25;;;2.85;;
52798;SDS011;38667;42.872;74.622;2022-07-17T05:54:38;5.80;;;2.70;;
52798;SDS011;38667;42.872;74.622;2022-07-17T05:57:05;7.63;;;3.00;;
52798;SDS011;38667;42.872;74.622;2022-07-17T05:59:32;8.43;;;2.88;;
52798;SDS011;38667;42.872;74.622;2022-07-17T06:01:58;12.15;;;2.80;;
52798;SDS011;38667;42.872;74.622;2022-07-17T06:04:24;6.55;;;2.42;;
52798;SDS011;38667;42.872;74.622;2022-07-17T06:06:51;8.18;;;2.85;;
52798;SDS011;38667;42.872;74.622;2022-07-17T06:09:17;6.60;;;2.90;;
52798;SDS011;38667;42.872;74.622;2022-07-17T06:11:43;7.50;;;2.72;;
52798;SDS011;38667;42.872;74.622;2022-07-17T06:14:11;7.32;;;2.40;;
52798;SDS011;38667;42.872;74.622;2022-07-17T06:16:37;6.70;;;2.60;;
52798;SDS011;38667;42.872;74.622;2022-07-17T06:19:04;7.75;;;2.67;;
52798;SDS011;38667;42.872;74.622;2022-07-17T06:21:30;6.65;;;3.20;;
52798;SDS011;38667;42.872;74.622;2022-07-17T06:23:57;5.03;;;2.90;;
52798;SDS011;38667;42.872;74.622;2022-07-17T06:26:23;5.53;;;3.03;;
52798;SDS011;38667;42.872;74.622;2022-07-17T06:28:49;9.50;;;3.53;;
52798;SDS011;38667;42.872;74.622;2022-07-17T06:31:17;11.80;;;3.50;;
52798;SDS011;38667;42.872;74.622;2022-07-17T06:33:43;12.52;;;3.92;;
52798;SDS011;38667;42.872;74.622;2022-07-17T06:36:10;7.35;;;4.43;;
52798;SDS011;38667;42.872;74.622;2022-07-17T06:38:36;13.98;;;5.97;;
52798;SDS011;38667;42.872;74.622;2022-07-17T06:41:02;11.23;;;6.25;;
52798;SDS011;38667;42.872;74.622;2022-07-17T06:43:28;13.80;;;6.10;;
52798;SDS011;38667;42.872;74.622;2022-07-17T06:45:55;16.42;;;7.80;;
52798;SDS011;38667;42.872;74.622;2022-07-17T06:48:23;12.13;;;6.80;;
52798;SDS011;38667;42.872;74.622;2022-07-17T06:50:49;18.25;;;7.82;;
52798;SDS011;38667;42.872;74.622;2022-07-17T06:53:15;16.70;;;8.32;;
52798;SDS011;38667;42.872;74.622;2022-07-17T06:55:42;15.68;;;8.07;;
52798;SDS011;38667;42.872;74.622;2022-07-17T06:58:08;14.98;;;8.10;;
52798;SDS011;38667;42.872;74.622;2022-07-17T07:00:34;16.48;;;7.88;;
52798;SDS011;38667;42.872;74.622;2022-07-17T07:03:01;21.90;;;9.30;;
52798;SDS011;38667;42.872;74.622;2022-07-17T07:05:28;18.58;;;8.68;;
52798;SDS011;38667;42.872;74.622;2022-07-17T07:07:55;15.13;;;7.22;;
52798;SDS011;38667;42.872;74.622;2022-07-17T07:10:21;11.88;;;5.95;;
52798;SDS011;38667;42.872;74.622;2022-07-17T07:12:47;12.02;;;6.00;;
52798;SDS011;38667;42.872;74.622;2022-07-17T07:15:14;14.45;;;5.00;;
52798;SDS011;38667;42.872;74.622;2022-07-17T07:17:40;11.52;;;4.35;;
52798;SDS011;38667;42.872;74.622;2022-07-17T07:20:07;7.60;;;2.92;;
52798;SDS011;38667;42.872;74.622;2022-07-17T07:22:36;4.75;;;2.70;;
52798;SDS011;38667;42.872;74.622;2022-07-17T07:25:02;6.68;;;2.85;;
52798;SDS011;38667;42.872;74.622;2022-07-17T07:27:29;4.63;;;1.95;;
52798;SDS011;38667;42.872;74.622;2022-07-17T07:29:55;3.20;;;1.30;;
52798;SDS011;38667;42.872;74.622;2022-07-17T07:32:22;3.55;;;1.90;;
52798;SDS011;38667;42.872;74.622;2022-07-17T07:34:48;3.53;;;2.35;;
52798;SDS011;38667;42.872;74.622;2022-07-17T07:37:14;2.60;;;1.67;;
52798;SDS011;38667;42.872;74.622;2022-07-17T07:39:42;4.07;;;2.28;;
52798;SDS011;38667;42.872;74.622;2022-07-17T07:42:08;10.90;;;3.30;;
52798;SDS011;38667;42.872;74.622;2022-07-17T07:44:35;7.30;;;2.05;;
52798;SDS011;38667;42.872;74.622;2022-07-17T07:47:01;3.00;;;1.90;;
52798;SDS011;38667;42.872;74.622;2022-07-17T07:49:27;3.25;;;1.80;;
52798;SDS011;38667;42.872;74.622;2022-07-17T07:51:54;5.75;;;3.45;;
52798;SDS011;38667;42.872;74.622;2022-07-17T07:54:20;6.28;;;3.40;;
52798;SDS011;38667;42.872;74.622;2022-07-17T07:56:48;8.43;;;4.25;;
52798;SDS011;38667;42.872;74.622;2022-07-17T07:59:14;8.43;;;4.45;;
52798;SDS011;38667;42.872;74.622;2022-07-17T08:01:40;6.13;;;3.45;;
52798;SDS011;38667;42.872;74.622;2022-07-17T08:04:06;8.10;;;3.78;;
52798;SDS011;38667;42.872;74.622;2022-07-17T08:06:33;8.27;;;4.95;;
52798;SDS011;38667;42.872;74.622;2022-07-17T08:08:59;13.23;;;5.03;;
52798;SDS011;38667;42.872;74.622;2022-07-17T08:11:25;14.52;;;6.22;;
52798;SDS011;38667;42.872;74.622;2022-07-17T08:13:53;12.05;;;5.88;;
52798;SDS011;38667;42.872;74.622;2022-07-17T08:16:19;8.75;;;5.53;;
52798;SDS011;38667;42.872;74.622;2022-07-17T08:18:46;10.07;;;6.00;;
52798;SDS011;38667;42.872;74.622;2022-07-17T08:21:12;8.77;;;5.13;;
52798;SDS011;38667;42.872;74.622;2022-07-17T08:23:38;7.65;;;4.63;;
52798;SDS011;38667;42.872;74.622;2022-07-17T08:26:05;7.05;;;4.88;;
52798;SDS011;38667;42.872;74.622;2022-07-17T08:28:31;6.90;;;4.55;;
52798;SDS011;38667;42.872;74.622;2022-07-17T08:30:59;10.13;;;4.50;;
52798;SDS011;38667;42.872;74.622;2022-07-17T08:33:25;7.07;;;4.15;;
52798;SDS011;38667;42.872;74.622;2022-07-17T08:35:51;6.88;;;4.57;;
52798;SDS011;38667;42.872;74.622;2022-07-17T08:38:18;9.52;;;6.75;;
52798;SDS011;38667;42.872;74.622;2022-07-17T08:40:44;9.57;;;6.13;;
52798;SDS011;38667;42.872;74.622;2022-07-17T08:43:10;8.77;;;6.50;;
52798;SDS011;38667;42.872;74.622;2022-07-17T08:45:37;8.43;;;5.55;;
52798;SDS011;38667;42.872;74.622;2022-07-17T08:48:06;5.72;;;4.50;;
52798;SDS011;38667;42.872;74.622;2022-07-17T08:50:37;8.27;;;4.97;;
52798;SDS011;38667;42.872;74.622;2022-07-17T08:53:03;5.43;;;2.40;;
52798;SDS011;38667;42.872;74.622;2022-07-17T08:55:30;4.47;;;1.90;;
52798;SDS011;38667;42.872;74.622;2022-07-17T08:57:57;3.80;;;2.53;;
52798;SDS011;38667;42.872;74.622;2022-07-17T09:00:24;4.78;;;3.28;;
52798;SDS011;38667;42.872;74.622;2022-07-17T09:02:52;6.10;;;2.38;;
52798;SDS011;38667;42.872;74.622;2022-07-17T09:05:21;6.32;;;2.33;;
52798;SDS011;38667;42.872;74.622;2022-07-17T09:07:48;3.50;;;2.08;;
52798;SDS011;38667;42.872;74.622;2022-07-17T09:10:14;4.03;;;2.13;;
52798;SDS011;38667;42.872;74.622;2022-07-17T09:12:41;5.53;;;1.85;;
52798;SDS011;38667;42.872;74.622;2022-07-17T09:15:14;6.38;;;1.80;;
52798;SDS011;38667;42.872;74.622;2022-07-17T09:17:47;4.93;;;1.25;;
52798;SDS011;38667;42.872;74.622;2022-07-17T09:20:13;3.95;;;1.20;;
52798;SDS011;38667;42.872;74.622;2022-07-17T09:22:42;4.68;;;1.52;;
52798;SDS011;38667;42.872;74.622;2022-07-17T09:25:08;3.58;;;1.38;;
52798;SDS011;38667;42.872;74.622;2022-07-17T09:27:35;4.30;;;1.48;;
52798;SDS011;38667;42.872;74.622;2022-07-17T09:30:03;2.40;;;1.50;;
52798;SDS011;38667;42.872;74.622;2022-07-17T09:32:32;6.15;;;1.55;;
52798;SDS011;38667;42.872;74.622;2022-07-17T09:35:00;5.60;;;1.58;;
52798;SDS011;38667;42.872;74.622;2022-07-17T09:37:28;3.10;;;1.80;;
52798;SDS011;38667;42.872;74.622;2022-07-17T09:39:57;6.10;;;1.52;;
52798;SDS011;38667;42.872;74.622;2022-07-17T09:42:24;5.80;;;1.73;;
52798;SDS011;38667;42.872;74.622;2022-07-17T09:44:58;10.48;;;1.52;;
52798;SDS011;38667;42.872;74.622;2022-07-17T09:47:26;3.67;;;1.20;;
52798;SDS011;38667;42.872;74.622;2022-07-17T09:49:53;4.00;;;1.80;;
52798;SDS011;38667;42.872;74.622;2022-07-17T09:52:21;5.13;;;1.10;;
52798;SDS011;38667;42.872;74.622;2022-07-17T09:54:49;4.80;;;1.40;;
52798;SDS011;38667;42.872;74.622;2022-07-17T09:57:20;4.93;;;1.10;;
52798;SDS011;38667;42.872;74.622;2022-07-17T09:59:51;2.45;;;1.27;;
52798;SDS011;38667;42.872;74.622;2022-07-17T10:02:19;2.75;;;1.50;;
52798;SDS011;38667;42.872;74.622;2022-07-17T10:04:45;4.28;;;1.02;;
52798;SDS011;38667;42.872;74.622;2022-07-17T10:07:12;5.38;;;1.40;;
52798;SDS011;38667;42.872;74.622;2022-07-17T10:09:39;3.08;;;1.00;;
52798;SDS011;38667;42.872;74.622;2022-07-17T10:12:06;3.95;;;1.00;;
52798;SDS011;38667;42.872;74.622;2022-07-17T10:14:35;2.88;;;1.20;;
52798;SDS011;38667;42.872;74.622;2022-07-17T10:17:08;1.30;;;1.20;;
52798;SDS011;38667;42.872;74.622;2022-07-17T10:19:43;5.55;;;1.10;;
52798;SDS011;38667;42.872;74.622;2022-07-17T10:22:12;4.80;;;1.30;;
52798;SDS011;38667;42.872;74.622;2022-07-17T10:24:44;4.00;;;1.30;;
52798;SDS011;38667;42.872;74.622;2022-07-17T10:27:17;2.10;;;1.02;;
52798;SDS011;38667;42.872;74.622;2022-07-17T10:29:46;2.30;;;1.17;;
52798;SDS011;38667;42.872;74.622;2022-07-17T10:32:14;6.10;;;1.30;;
52798;SDS011;38667;42.872;74.622;2022-07-17T10:34:43;5.88;;;1.20;;
52798;SDS011;38667;42.872;74.622;2022-07-17T10:37:17;7.03;;;1.38;;
52798;SDS011;38667;42.872;74.622;2022-07-17T10:39:58;3.17;;;1.00;;
52798;SDS011;38667;42.872;74.622;2022-07-17T10:42:39;2.10;;;1.30;;
52798;SDS011;38667;42.872;74.622;2022-07-17T10:45:09;6.10;;;1.15;;
52798;SDS011;38667;42.872;74.622;2022-07-17T10:47:47;7.47;;;1.10;;
52798;SDS011;38667;42.872;74.622;2022-07-17T10:50:15;2.63;;;1.13;;
52798;SDS011;38667;42.872;74.622;2022-07-17T10:52:42;2.13;;;1.20;;
52798;SDS011;38667;42.872;74.622;2022-07-17T10:55:18;4.20;;;1.02;;
52798;SDS011;38667;42.872;74.622;2022-07-17T10:57:45;3.10;;;1.55;;
52798;SDS011;38667;42.872;74.622;2022-07-17T11:00:14;6.25;;;1.30;;
52798;SDS011;38667;42.872;74.622;2022-07-17T11:02:41;2.50;;;1.40;;
52798;SDS011;38667;42.872;74.622;2022-07-17T11:05:08;2.72;;;1.45;;
52798;SDS011;38667;42.872;74.622;2022-07-17T11:07:35;3.78;;;1.30;;
52798;SDS011;38667;42.872;74.622;2022-07-17T11:10:01;6.22;;;1.85;;
52798;SDS011;38667;42.872;74.622;2022-07-17T11:12:31;5.55;;;1.33;;
52798;SDS011;38667;42.872;74.622;2022-07-17T11:15:00;5.28;;;1.45;;
52798;SDS011;38667;42.872;74.622;2022-07-17T11:17:28;3.05;;;1.08;;
52798;SDS011;38667;42.872;74.622;2022-07-17T11:19:55;3.22;;;0.95;;
52798;SDS011;38667;42.872;74.622;2022-07-17T11:22:24;4.85;;;1.40;;
52798;SDS011;38667;42.872;74.622;2022-07-17T11:24:51;6.38;;;1.42;;
52798;SDS011;38667;42.872;74.622;2022-07-17T11:27:21;3.90;;;1.40;;
52798;SDS011;38667;42.872;74.622;2022-07-17T11:29:48;2.40;;;1.10;;
52798;SDS011;38667;42.872;74.622;2022-07-17T11:32:15;1.50;;;1.15;;
52798;SDS011;38667;42.872;74.622;2022-07-17T11:34:43;3.03;;;1.30;;
52798;SDS011;38667;42.872;74.622;2022-07-17T11:37:09;7.90;;;1.73;;
52798;SDS011;38667;42.872;74.622;2022-07-17T11:39:37;2.40;;;1.70;;
52798;SDS011;38667;42.872;74.622;2022-07-17T11:42:04;3.45;;;1.17;;
52798;SDS011;38667;42.872;74.622;2022-07-17T11:44:33;2.42;;;1.02;;
52798;SDS011;38667;42.872;74.622;2022-07-17T11:47:00;5.30;;;1.60;;
52798;SDS011;38667;42.872;74.622;2022-07-17T11:49:28;5.40;;;1.60;;
52798;SDS011;38667;42.872;74.622;2022-07-17T11:51:57;2.85;;;2.15;;
52798;SDS011;38667;42.872;74.622;2022-07-17T11:54:25;2.95;;;2.00;;
52798;SDS011;38667;42.872;74.622;2022-07-17T11:56:52;3.00;;;1.67;;
52798;SDS011;38667;42.872;74.622;2022-07-17T11:59:24;2.97;;;1.48;;
52798;SDS011;38667;42.872;74.622;2022-07-17T12:01:52;3.53;;;1.40;;
52798;SDS011;38667;42.872;74.622;2022-07-17T12:04:19;5.65;;;1.60;;
52798;SDS011;38667;42.872;74.622;2022-07-17T12:06:45;6.90;;;2.00;;
52798;SDS011;38667;42.872;74.622;2022-07-17T12:09:13;7.35;;;1.58;;
52798;SDS011;38667;42.872;74.622;2022-07-17T12:11:46;7.85;;;2.00;;
52798;SDS011;38667;42.872;74.622;2022-07-17T12:14:14;9.32;;;2.20;;
52798;SDS011;38667;42.872;74.622;2022-07-17T12:16:40;23.45;;;2.40;;
52798;SDS011;38667;42.872;74.622;2022-07-17T12:19:08;8.93;;;1.88;;
52798;SDS011;38667;42.872;74.622;2022-07-17T12:21:49;14.85;;;2.42;;
52798;SDS011;38667;42.872;74.622;2022-07-17T12:24:25;7.90;;;2.13;;
52798;SDS011;38667;42.872;74.622;2022-07-17T12:26:52;7.90;;;2.20;;
52798;SDS011;38667;42.872;74.622;2022-07-17T12:29:19;9.80;;;2.50;;
52798;SDS011;38667;42.872;74.622;2022-07-17T12:31:46;20.13;;;3.08;;
52798;SDS011;38667;42.872;74.622;2022-07-17T12:34:12;12.90;;;3.83;;
52798;SDS011;38667;42.872;74.622;2022-07-17T12:36:38;7.90;;;4.22;;
52798;SDS011;38667;42.872;74.622;2022-07-17T12:39:04;10.75;;;4.68;;
52798;SDS011;38667;42.872;74.622;2022-07-17T12:41:32;4.63;;;1.52;;
52798;SDS011;38667;42.872;74.622;2022-07-17T12:43:59;7.07;;;2.38;;
52798;SDS011;38667;42.872;74.622;2022-07-17T12:46:25;4.55;;;1.45;;
52798;SDS011;38667;42.872;74.622;2022-07-17T12:48:51;3.83;;;1.25;;
52798;SDS011;38667;42.872;74.622;2022-07-17T12:51:17;4.68;;;1.40;;
52798;SDS011;38667;42.872;74.622;2022-07-17T12:53:44;8.15;;;3.10;;
52798;SDS011;38667;42.872;74.622;2022-07-17T12:56:10;15.40;;;3.95;;
52798;SDS011;38667;42.872;74.622;2022-07-17T12:58:38;9.48;;;4.10;;
52798;SDS011;38667;42.872;74.622;2022-07-17T13:01:04;11.93;;;4.72;;
52798;SDS011;38667;42.872;74.622;2022-07-17T13:03:31;9.27;;;4.65;;
52798;SDS011;38667;42.872;74.622;2022-07-17T13:05:58;14.27;;;4.65;;
52798;SDS011;38667;42.872;74.622;2022-07-17T13:08:24;20.13;;;4.03;;
52798;SDS011;38667;42.872;74.622;2022-07-17T13:10:50;16.27;;;3.70;;
52798;SDS011;38667;42.872;74.622;2022-07-17T13:13:17;15.75;;;4.10;;
52798;SDS011;38667;42.872;74.622;2022-07-17T13:15:45;18.08;;;3.67;;
52798;SDS011;38667;42.872;74.622;2022-07-17T13:18:11;9.52;;;3.47;;
52798;SDS011;38667;42.872;74.622;2022-07-17T13:20:37;6.85;;;2.97;;
52798;SDS011;38667;42.872;74.622;2022-07-17T13:23:04;5.47;;;3.33;;
52798;SDS011;38667;42.872;74.622;2022-07-17T13:25:31;5.18;;;3.08;;
52798;SDS011;38667;42.872;74.622;2022-07-17T13:27:57;6.32;;;3.15;;
52798;SDS011;38667;42.872;74.622;2022-07-17T13:30:24;9.07;;;2.80;;
52798;SDS011;38667;42.872;74.622;2022-07-17T13:33:06;10.02;;;2.33;;
52798;SDS011;38667;42.872;74.622;2022-07-17T13:35:32;8.10;;;2.95;;
52798;SDS011;38667;42.872;74.622;2022-07-17T13:37:59;6.38;;;2.45;;
52798;SDS011;38667;42.872;74.622;2022-07-17T13:40:25;5.18;;;2.35;;
52798;SDS011;38667;42.872;74.622;2022-07-17T13:42:52;3.67;;;2.33;;
52798;SDS011;38667;42.872;74.622;2022-07-17T13:45:18;4.43;;;1.92;;
52798;SDS011;38667;42.872;74.622;2022-07-17T13:47:44;3.75;;;2.28;;
52798;SDS011;38667;42.872;74.622;2022-07-17T13:50:12;6.82;;;2.00;;
52798;SDS011;38667;42.872;74.622;2022-07-17T13:52:38;3.85;;;2.10;;
52798;SDS011;38667;42.872;74.622;2022-07-17T13:55:05;3.70;;;1.90;;
52798;SDS011;38667;42.872;74.622;2022-07-17T13:57:32;3.70;;;2.30;;
52798;SDS011;38667;42.872;74.622;2022-07-17T13:59:58;8.65;;;2.70;;
52798;SDS011;38667;42.872;74.622;2022-07-17T14:02:25;8.70;;;2.60;;
52798;SDS011;38667;42.872;74.622;2022-07-17T14:04:51;4.95;;;2.30;;
52798;SDS011;38667;42.872;74.622;2022-07-17T14:07:19;15.80;;;3.05;;
52798;SDS011;38667;42.872;74.622;2022-07-17T14:09:45;6.22;;;2.70;;
52798;SDS011;38667;42.872;74.622;2022-07-17T14:12:12;4.63;;;2.38;;
52798;SDS011;38667;42.872;74.622;2022-07-17T14:14:38;6.82;;;2.30;;
52798;SDS011;38667;42.872;74.622;2022-07-17T14:17:04;6.30;;;3.05;;
52798;SDS011;38667;42.872;74.622;2022-07-17T14:19:30;6.13;;;2.53;;
52798;SDS011;38667;42.872;74.622;2022-07-17T14:21:57;7.65;;;2.55;;
52798;SDS011;38667;42.872;74.622;2022-07-17T14:24:25;7.63;;;2.60;;
52798;SDS011;38667;42.872;74.622;2022-07-17T14:26:51;8.70;;;2.88;;
52798;SDS011;38667;42.872;74.622;2022-07-17T14:29:17;7.43;;;2.97;;